createdAt,value
2022-09-20T00:01:32.111Z,1.97
2022-09-20T00:04:01.627Z,1.50
2022-09-20T00:06:31.333Z,1.80
2022-09-20T00:09:01.327Z,2.07
2022-09-20T00:11:32.523Z,1.77
2022-09-20T00:14:02.000Z,1.73
2022-09-20T00:16:31.635Z,1.77
2022-09-20T00:19:01.018Z,1.90
2022-09-20T00:21:30.280Z,1.73
2022-09-20T00:23:59.170Z,1.70
2022-09-20T00:26:28.216Z,2.07
2022-09-20T00:29:01.460Z,1.90
2022-09-20T00:31:29.932Z,1.70
2022-09-20T00:34:16.442Z,1.60
2022-09-20T00:36:44.790Z,1.50
2022-09-20T00:39:14.092Z,1.47
2022-09-20T00:41:42.438Z,1.63
2022-09-20T00:44:29.501Z,1.80
2022-09-20T00:46:59.770Z,1.57
2022-09-20T00:49:29.705Z,1.80
2022-09-20T00:51:59.502Z,1.90
2022-09-20T00:54:28.663Z,1.67
2022-09-20T00:56:57.050Z,1.90
2022-09-20T00:59:27.077Z,1.77
2022-09-20T01:01:57.124Z,1.70
2022-09-20T01:04:28.735Z,1.70
2022-09-20T01:06:59.705Z,1.50
2022-09-20T01:09:30.485Z,1.87
2022-09-20T01:11:59.615Z,1.97
2022-09-20T01:14:28.397Z,1.60
2022-09-20T01:16:58.296Z,2.03
2022-09-20T01:19:36.257Z,1.70
2022-09-20T01:22:06.105Z,2.10
2022-09-20T01:24:40.559Z,1.80
2022-09-20T01:27:15.840Z,2.27
2022-09-20T01:29:55.443Z,1.90
2022-09-20T01:32:26.841Z,1.70
2022-09-20T01:34:56.564Z,1.90
2022-09-20T01:37:26.721Z,1.80
2022-09-20T01:40:00.239Z,2.07
2022-09-20T01:42:36.001Z,1.77
2022-09-20T01:45:12.444Z,2.00
2022-09-20T01:47:44.966Z,2.00
2022-09-20T01:50:17.029Z,2.03
2022-09-20T01:53:04.055Z,1.73
2022-09-20T01:55:59.540Z,1.73
2022-09-20T01:59:01.860Z,1.93
2022-09-20T02:01:53.511Z,2.00
2022-09-20T02:04:32.928Z,2.03
2022-09-20T02:07:22.215Z,1.70
2022-09-20T02:10:00.078Z,1.97
2022-09-20T02:12:40.712Z,2.30
2022-09-20T02:15:15.423Z,2.10
2022-09-20T02:17:50.558Z,1.80
2022-09-20T02:20:24.998Z,2.03
2022-09-20T02:22:59.492Z,1.80
2022-09-20T02:25:45.582Z,2.13
2022-09-20T02:28:18.703Z,1.87
2022-09-20T02:30:51.455Z,1.97
2022-09-20T02:33:27.214Z,2.03
2022-09-20T02:36:05.285Z,1.73
2022-09-20T02:38:41.482Z,2.07
2022-09-20T02:41:25.630Z,1.70
2022-09-20T02:43:57.930Z,2.10
2022-09-20T02:46:30.583Z,2.40
2022-09-20T02:49:04.381Z,2.30
2022-09-20T02:51:37.839Z,2.10
2022-09-20T02:54:13.981Z,2.20
2022-09-20T02:56:44.926Z,2.10
2022-09-20T02:59:20.888Z,2.43
2022-09-20T03:01:53.885Z,2.00
2022-09-20T03:04:34.825Z,2.00
2022-09-20T03:07:05.611Z,2.03
2022-09-20T03:09:36.883Z,2.00
2022-09-20T03:12:12.330Z,2.00
2022-09-20T03:14:44.118Z,1.80
2022-09-20T03:17:17.906Z,2.10
2022-09-20T03:20:00.926Z,1.80
2022-09-20T03:22:33.092Z,2.30
2022-09-20T03:25:09.346Z,1.83
2022-09-20T03:27:43.592Z,2.07
2022-09-20T03:30:21.879Z,1.83
2022-09-20T03:32:55.388Z,2.07
2022-09-20T03:35:36.886Z,2.13
2022-09-20T03:38:11.187Z,2.13
2022-09-20T03:40:54.876Z,1.87
2022-09-20T03:43:28.551Z,2.33
2022-09-20T03:46:05.317Z,2.53
2022-09-20T03:48:51.189Z,2.10
2022-09-20T03:51:24.685Z,2.37
2022-09-20T03:54:01.789Z,1.97
2022-09-20T03:56:45.003Z,2.50
2022-09-20T03:59:23.258Z,2.20
2022-09-20T04:02:02.132Z,2.20
2022-09-20T04:04:41.291Z,2.07
2022-09-20T04:07:18.546Z,2.90
2022-09-20T04:10:08.074Z,2.17
2022-09-20T04:12:42.705Z,2.20
2022-09-20T04:15:20.929Z,2.00
2022-09-20T04:17:51.381Z,2.50
2022-09-20T04:20:23.982Z,2.23
2022-09-20T04:22:56.043Z,2.50
2022-09-20T04:25:27.719Z,2.50
2022-09-20T04:27:58.827Z,2.93
2022-09-20T04:30:30.188Z,2.73
2022-09-20T04:33:03.587Z,2.30
2022-09-20T04:35:55.831Z,2.40
2022-09-20T04:38:26.439Z,2.87
2022-09-20T04:41:04.280Z,2.50
2022-09-20T04:43:52.288Z,2.40
2022-09-20T04:46:55.950Z,2.77
2022-09-20T04:49:44.783Z,2.83
2022-09-20T04:52:26.896Z,2.90
2022-09-20T04:55:12.185Z,2.47
2022-09-20T04:57:58.331Z,2.40
2022-09-20T05:00:30.319Z,2.40
2022-09-20T05:03:21.703Z,2.70
2022-09-20T05:06:08.492Z,2.53
2022-09-20T05:08:58.772Z,2.40
2022-09-20T05:11:37.150Z,2.60
2022-09-20T05:14:18.383Z,2.30
2022-09-20T05:16:58.637Z,2.47
2022-09-20T05:19:29.666Z,2.60
2022-09-20T05:22:08.467Z,2.63
2022-09-20T05:24:52.789Z,2.23
2022-09-20T05:27:39.090Z,2.30
2022-09-20T05:30:13.019Z,2.77
2022-09-20T05:32:46.697Z,2.67
2022-09-20T05:35:18.658Z,2.70
2022-09-20T05:37:50.999Z,2.43
2022-09-20T05:40:24.695Z,2.60
2022-09-20T05:42:57.029Z,2.43
2022-09-20T05:45:36.312Z,2.67
2022-09-20T05:48:13.283Z,2.27
2022-09-20T05:50:46.467Z,2.57
2022-09-20T05:53:36.014Z,2.40
2022-09-20T05:56:07.906Z,2.20
2022-09-20T05:58:44.754Z,2.37
2022-09-20T06:01:17.477Z,2.40
2022-09-20T06:03:55.743Z,2.40
2022-09-20T06:06:32.264Z,2.90
2022-09-20T06:09:05.785Z,2.43
2022-09-20T06:11:50.661Z,2.70
2022-09-20T06:14:23.431Z,2.27
2022-09-20T06:16:55.997Z,2.30
2022-09-20T06:19:29.303Z,2.47
2022-09-20T06:22:03.046Z,2.40
2022-09-20T06:24:37.376Z,2.87
2022-09-20T06:27:09.001Z,3.20
2022-09-20T06:29:38.625Z,2.70
2022-09-20T06:32:07.829Z,2.87
2022-09-20T06:34:37.792Z,2.70
2022-09-20T06:37:29.184Z,3.30
2022-09-20T06:40:19.275Z,2.40
2022-09-20T06:42:47.692Z,2.93
2022-09-20T06:45:16.359Z,2.83
2022-09-20T06:47:44.734Z,2.90
2022-09-20T06:50:18.215Z,2.90
2022-09-20T06:52:47.503Z,3.30
2022-09-20T06:55:20.142Z,3.07
2022-09-20T06:57:48.548Z,2.90
2022-09-20T07:00:17.447Z,3.30
2022-09-20T07:02:46.652Z,2.73
2022-09-20T07:05:16.217Z,3.00
2022-09-20T07:07:47.509Z,2.97
2022-09-20T07:10:16.898Z,2.70
2022-09-20T07:12:45.901Z,2.57
2022-09-20T07:15:16.662Z,4.33
2022-09-20T07:17:46.206Z,3.93
2022-09-20T07:20:17.414Z,3.03
2022-09-20T07:22:50.539Z,3.10
2022-09-20T07:25:19.220Z,3.10
2022-09-20T07:27:48.085Z,2.90
2022-09-20T07:30:16.883Z,3.20
2022-09-20T07:32:45.312Z,3.20
2022-09-20T07:35:14.069Z,3.43
2022-09-20T07:37:42.446Z,2.70
2022-09-20T07:40:14.662Z,3.07
2022-09-20T07:42:45.345Z,3.20
2022-09-20T07:45:13.771Z,3.50
2022-09-20T07:47:44.912Z,3.40
2022-09-20T07:50:13.285Z,3.97
2022-09-20T07:52:41.676Z,4.07
2022-09-20T07:55:12.219Z,4.13
2022-09-20T07:57:40.638Z,3.80
2022-09-20T08:00:10.210Z,4.10
2022-09-20T08:02:41.353Z,4.07
2022-09-20T08:05:10.363Z,4.00
2022-09-20T08:07:41.804Z,4.43
2022-09-20T08:10:12.106Z,3.70
2022-09-20T08:15:29.741Z,5.10
2022-09-20T08:17:58.143Z,4.90
2022-09-20T08:20:26.496Z,4.77
2022-09-20T08:23:19.451Z,5.70
2022-09-20T08:25:45.032Z,3.87
2022-09-20T08:28:13.385Z,5.00
2022-09-20T08:30:42.852Z,4.90
2022-09-20T08:33:11.525Z,4.87
2022-09-20T08:35:39.895Z,4.73
2022-09-20T08:40:59.239Z,4.97
2022-09-20T08:43:29.916Z,4.33
2022-09-20T08:46:05.309Z,4.20
2022-09-20T08:48:35.290Z,4.97
2022-09-20T08:51:05.621Z,4.37
2022-09-20T08:53:34.828Z,4.03
2022-09-20T08:56:04.759Z,4.03
2022-09-20T08:58:33.193Z,3.43
2022-09-20T09:01:01.869Z,3.73
2022-09-20T09:03:30.276Z,3.83
2022-09-20T09:05:59.379Z,3.57
2022-09-20T09:08:30.972Z,4.13
2022-09-20T09:11:00.812Z,3.47
2022-09-20T09:13:33.641Z,3.93
2022-09-20T09:16:03.389Z,3.50
2022-09-20T09:18:37.178Z,3.70
2022-09-20T09:21:06.058Z,3.90
2022-09-20T09:23:41.052Z,3.17
2022-09-20T09:26:16.559Z,3.13
2022-09-20T09:28:46.303Z,3.73
2022-09-20T09:31:16.004Z,3.57
2022-09-20T09:33:47.487Z,3.20
2022-09-20T09:36:16.682Z,2.83
2022-09-20T09:38:46.252Z,3.07
2022-09-20T09:41:29.826Z,2.90
2022-09-20T09:44:04.919Z,2.53
2022-09-20T09:46:34.236Z,2.77
2022-09-20T09:49:10.345Z,3.00
2022-09-20T09:51:42.445Z,3.60
2022-09-20T09:54:11.289Z,3.27
2022-09-20T09:56:48.523Z,3.10
2022-09-20T09:59:35.758Z,2.90
2022-09-20T10:02:13.142Z,2.80
2022-09-20T10:04:47.791Z,3.10
2022-09-20T10:07:21.375Z,3.53
2022-09-20T10:09:56.678Z,3.27
2022-09-20T10:12:37.915Z,3.10
2022-09-20T10:15:13.354Z,3.40
2022-09-20T10:17:48.338Z,3.30
2022-09-20T10:20:31.568Z,2.50
2022-09-20T10:25:57.663Z,3.00
2022-09-20T10:28:33.025Z,2.57
2022-09-20T10:31:08.191Z,2.90
2022-09-20T10:33:40.120Z,2.37
2022-09-20T10:36:18.145Z,1.90
2022-09-20T10:38:48.264Z,2.03
2022-09-20T10:41:38.367Z,2.27
2022-09-20T10:44:12.521Z,2.00
2022-09-20T10:46:51.587Z,2.30
2022-09-20T10:49:25.043Z,1.93
2022-09-20T10:52:02.764Z,1.60
2022-09-20T10:54:40.704Z,1.50
2022-09-20T10:57:18.251Z,2.00
2022-09-20T10:59:51.291Z,1.40
2022-09-20T11:02:34.439Z,1.63
2022-09-20T11:05:16.969Z,1.63
2022-09-20T11:07:48.931Z,1.80
2022-09-20T11:10:20.264Z,1.60
2022-09-20T11:12:50.857Z,1.40
2022-09-20T11:15:21.026Z,1.60
2022-09-20T11:17:55.271Z,1.23
2022-09-20T11:20:25.289Z,1.33
2022-09-20T11:22:57.486Z,1.73
2022-09-20T11:25:31.070Z,1.57
2022-09-20T11:28:03.148Z,1.80
2022-09-20T11:30:32.093Z,1.53
2022-09-20T11:33:04.704Z,1.73
2022-09-20T11:35:34.894Z,1.40
2022-09-20T11:38:09.559Z,1.47
2022-09-20T11:40:40.671Z,1.33
2022-09-20T11:43:12.318Z,1.77
2022-09-20T11:45:43.152Z,1.40
2022-09-20T11:48:19.151Z,1.47
2022-09-20T11:50:57.121Z,1.50
2022-09-20T11:53:36.777Z,1.20
2022-09-20T11:56:08.797Z,1.40
2022-09-20T11:58:47.041Z,1.67
2022-09-20T12:01:15.807Z,1.30
2022-09-20T12:04:04.228Z,2.00
2022-09-20T12:06:42.827Z,1.60
2022-09-20T12:09:24.323Z,1.50
2022-09-20T12:11:53.374Z,1.33
2022-09-20T12:14:27.191Z,1.30
2022-09-20T12:16:56.396Z,1.53
2022-09-20T12:19:40.131Z,1.30
2022-09-20T12:22:19.249Z,1.60
2022-09-20T12:24:48.755Z,1.87
2022-09-20T12:27:23.277Z,1.10
2022-09-20T12:30:06.621Z,1.40
2022-09-20T12:32:42.291Z,1.67
2022-09-20T12:35:25.535Z,1.90
2022-09-20T12:37:55.564Z,1.20
2022-09-20T12:40:26.094Z,1.40
2022-09-20T12:42:57.841Z,1.43
2022-09-20T12:45:26.249Z,1.40
2022-09-20T12:47:56.589Z,1.20
2022-09-20T12:50:41.849Z,1.27
2022-09-20T12:53:16.648Z,1.20
2022-09-20T12:55:49.962Z,1.20
2022-09-20T12:58:29.646Z,1.20
2022-09-20T13:01:16.684Z,1.70
2022-09-20T13:03:45.958Z,1.23
2022-09-20T13:06:25.043Z,1.13
2022-09-20T13:08:59.856Z,1.30
2022-09-20T13:11:31.271Z,1.13
2022-09-20T13:14:00.068Z,1.40
2022-09-20T13:16:31.586Z,1.20
2022-09-20T13:19:01.904Z,1.43
2022-09-20T13:21:30.321Z,1.00
2022-09-20T13:24:01.367Z,1.23
2022-09-20T13:26:37.069Z,1.40
2022-09-20T13:29:09.757Z,1.40
2022-09-20T13:31:38.344Z,1.30
2022-09-20T13:34:23.627Z,1.03
2022-09-20T13:36:56.357Z,1.30
2022-09-20T13:39:31.261Z,1.00
2022-09-20T13:42:03.546Z,1.30
2022-09-20T13:44:34.525Z,1.00
2022-09-20T13:47:22.366Z,1.20
2022-09-20T13:49:51.570Z,0.90
2022-09-20T13:52:27.081Z,1.17
2022-09-20T13:54:56.838Z,1.20
2022-09-20T13:57:28.634Z,0.93
2022-09-20T13:59:58.059Z,1.30
2022-09-20T14:02:29.017Z,1.00
2022-09-20T14:04:58.364Z,1.27
2022-09-20T14:07:31.027Z,1.00
2022-09-20T14:10:01.702Z,1.10
2022-09-20T14:12:30.287Z,1.20
2022-09-20T14:14:59.071Z,1.30
2022-09-20T14:17:28.985Z,1.40
2022-09-20T14:19:58.327Z,3.87
2022-09-20T14:22:27.886Z,1.50
2022-09-20T14:25:06.752Z,1.10
2022-09-20T14:27:35.217Z,0.80
2022-09-20T14:30:04.615Z,1.07
2022-09-20T14:32:39.390Z,1.10
2022-09-20T14:35:09.698Z,1.10
2022-09-20T14:37:43.446Z,1.10
2022-09-20T14:40:21.286Z,0.97
2022-09-20T14:42:52.489Z,0.83
2022-09-20T14:45:25.200Z,1.10
2022-09-20T14:47:58.358Z,1.37
2022-09-20T14:50:28.721Z,1.27
2022-09-20T14:53:05.677Z,1.10
2022-09-20T14:55:37.859Z,1.20
2022-09-20T14:58:09.415Z,1.40
2022-09-20T15:00:51.251Z,1.30
2022-09-20T15:03:26.264Z,1.10
2022-09-20T15:05:54.650Z,1.50
2022-09-20T15:08:23.338Z,1.37
2022-09-20T15:10:53.296Z,1.07
2022-09-20T15:13:21.733Z,1.50
2022-09-20T15:15:52.188Z,1.10
2022-09-20T15:18:22.369Z,1.10
2022-09-20T15:20:50.849Z,1.10
2022-09-20T15:23:19.458Z,1.50
2022-09-20T15:25:51.765Z,1.27
2022-09-20T15:28:23.009Z,1.10
2022-09-20T15:30:52.244Z,1.33
2022-09-20T15:33:21.162Z,1.00
2022-09-20T15:35:53.108Z,1.20
2022-09-20T15:38:22.714Z,1.43
2022-09-20T15:40:51.408Z,1.50
2022-09-20T15:43:21.962Z,1.40
2022-09-20T15:45:52.814Z,1.60
2022-09-20T15:48:22.885Z,1.30
2022-09-20T15:51:04.178Z,1.20
2022-09-20T15:53:34.265Z,1.40
2022-09-20T15:56:06.534Z,1.23
2022-09-20T15:58:36.694Z,1.40
2022-09-20T16:01:08.219Z,1.20
2022-09-20T16:03:37.513Z,1.70
2022-09-20T16:06:06.992Z,1.47
2022-09-20T16:08:35.531Z,1.37
2022-09-20T16:11:04.401Z,1.30
2022-09-20T16:13:32.810Z,1.70
2022-09-20T16:16:02.257Z,1.60
2022-09-20T16:18:49.845Z,1.63
2022-09-20T16:21:19.289Z,1.37
2022-09-20T16:23:49.104Z,1.77
2022-09-20T16:26:17.474Z,1.73
2022-09-20T16:28:47.693Z,1.40
2022-09-20T16:31:36.729Z,1.90
2022-09-20T16:34:07.391Z,1.20
2022-09-20T16:36:36.163Z,1.40
2022-09-20T16:39:04.663Z,1.50
2022-09-20T16:41:36.063Z,1.30
2022-09-20T16:44:04.742Z,1.53
2022-09-20T16:46:37.024Z,1.20
2022-09-20T16:49:09.380Z,1.70
2022-09-20T16:51:38.757Z,1.77
2022-09-20T16:54:11.641Z,1.33
2022-09-20T16:56:40.695Z,1.67
2022-09-20T16:59:09.494Z,1.50
2022-09-20T17:01:38.890Z,1.60
2022-09-20T17:04:09.514Z,1.23
2022-09-20T17:06:38.871Z,1.33
2022-09-20T17:09:07.916Z,1.80
2022-09-20T17:11:39.954Z,1.70
2022-09-20T17:14:08.749Z,1.53
2022-09-20T17:16:41.002Z,1.60
2022-09-20T17:19:11.600Z,1.70
2022-09-20T17:21:40.523Z,1.90
2022-09-20T17:24:09.196Z,1.63
2022-09-20T17:26:38.743Z,1.53
2022-09-20T17:29:09.465Z,2.17
2022-09-20T17:31:38.708Z,1.70
2022-09-20T17:34:09.562Z,1.93
2022-09-20T17:36:40.639Z,2.03
2022-09-20T17:39:10.937Z,1.90
2022-09-20T17:41:43.061Z,1.70
2022-09-20T17:44:12.181Z,1.80
2022-09-20T17:46:41.487Z,1.60
2022-09-20T17:49:10.890Z,1.80
2022-09-20T17:51:41.532Z,1.70
2022-09-20T17:54:13.873Z,2.23
2022-09-20T17:56:42.699Z,1.80
2022-09-20T17:59:11.903Z,1.63
2022-09-20T18:01:41.490Z,1.40
2022-09-20T18:04:10.662Z,1.60
2022-09-20T18:06:42.118Z,2.40
2022-09-20T18:09:15.656Z,3.80
2022-09-20T18:11:45.353Z,2.80
2022-09-20T18:14:14.053Z,2.43
2022-09-20T18:16:43.192Z,2.03
2022-09-20T18:19:11.613Z,2.10
2022-09-20T18:21:40.944Z,2.60
2022-09-20T18:24:10.071Z,2.63
2022-09-20T18:26:40.074Z,2.00
2022-09-20T18:29:12.125Z,10.47
2022-09-20T18:31:43.154Z,3.53
2022-09-20T18:34:15.492Z,4.00
2022-09-20T18:36:43.931Z,3.93
2022-09-20T18:39:13.082Z,2.27
2022-09-20T18:41:44.745Z,1.60
2022-09-20T18:44:14.711Z,1.70
2022-09-20T18:46:43.131Z,1.70
2022-09-20T18:49:13.581Z,1.40
2022-09-20T18:51:42.421Z,1.87
2022-09-20T18:54:11.422Z,1.13
2022-09-20T18:56:40.385Z,1.23
2022-09-20T18:59:14.735Z,0.93
2022-09-20T19:01:49.514Z,1.23
2022-09-20T19:04:26.687Z,1.70
2022-09-20T19:07:05.599Z,1.50
2022-09-20T19:09:38.515Z,1.80
2022-09-20T19:12:09.059Z,1.20
2022-09-20T19:14:43.194Z,1.20
2022-09-20T19:17:13.110Z,1.30
2022-09-20T19:19:44.700Z,1.40
2022-09-20T19:22:20.864Z,3.10
2022-09-20T19:24:56.786Z,8.37
2022-09-20T19:27:25.870Z,3.47
2022-09-20T19:29:55.989Z,1.80
2022-09-20T19:32:26.261Z,1.40
2022-09-20T19:34:56.122Z,1.50
2022-09-20T19:37:31.033Z,1.40
2022-09-20T19:40:09.810Z,1.80
2022-09-20T19:42:41.889Z,1.40
2022-09-20T19:45:16.382Z,1.30
2022-09-20T19:47:52.001Z,1.30
2022-09-20T19:50:27.990Z,1.60
2022-09-20T19:52:57.013Z,1.40
2022-09-20T19:55:25.917Z,1.80
2022-09-20T19:57:54.576Z,1.70
2022-09-20T20:00:25.187Z,1.77
2022-09-20T20:02:54.010Z,1.63
2022-09-20T20:05:25.555Z,1.83
2022-09-20T20:07:57.531Z,1.80
2022-09-20T20:10:29.246Z,1.80
2022-09-20T20:13:01.064Z,2.10
2022-09-20T20:15:38.795Z,2.10
2022-09-20T20:18:14.515Z,1.70
2022-09-20T20:20:47.378Z,1.80
2022-09-20T20:23:30.404Z,1.80
2022-09-20T20:26:03.060Z,2.40
2022-09-20T20:28:31.599Z,3.20
2022-09-20T20:31:02.389Z,1.90
2022-09-20T20:33:32.158Z,6.70
2022-09-20T20:36:01.388Z,5.00
2022-09-20T20:38:37.194Z,2.67
2022-09-20T20:41:09.869Z,1.93
2022-09-20T20:43:42.270Z,2.97
2022-09-20T20:46:14.277Z,2.20
2022-09-20T20:48:43.128Z,2.70
2022-09-20T20:51:12.251Z,2.60
2022-09-20T20:53:43.065Z,2.70
2022-09-20T20:56:12.306Z,2.40
2022-09-20T20:58:44.570Z,2.40
2022-09-20T21:01:15.239Z,2.53
2022-09-20T21:03:44.531Z,2.63
2022-09-20T21:06:13.201Z,3.20
2022-09-20T21:08:45.785Z,4.10
2022-09-20T21:11:18.167Z,3.20
2022-09-20T21:13:48.354Z,3.30
2022-09-20T21:16:19.148Z,3.13
2022-09-20T21:18:48.342Z,3.20
2022-09-20T21:21:17.885Z,2.93
2022-09-20T21:23:47.449Z,3.17
2022-09-20T21:26:16.859Z,3.33
2022-09-20T21:28:52.072Z,3.60
2022-09-20T21:31:22.706Z,3.70
2022-09-20T21:33:52.318Z,3.30
2022-09-20T21:36:21.433Z,3.00
2022-09-20T21:38:49.764Z,3.20
2022-09-20T21:41:20.076Z,3.17
2022-09-20T21:43:48.899Z,3.23
2022-09-20T21:46:18.978Z,2.93
2022-09-20T21:48:51.649Z,3.00
2022-09-20T21:51:21.471Z,3.00
2022-09-20T21:53:50.334Z,3.00
2022-09-20T21:56:18.931Z,2.70
2022-09-20T21:58:47.590Z,2.83
2022-09-20T22:01:16.762Z,2.67
2022-09-20T22:03:45.879Z,2.63
2022-09-20T22:06:18.436Z,3.00
2022-09-20T22:08:48.271Z,2.80
2022-09-20T22:11:17.619Z,2.70
2022-09-20T22:13:46.567Z,7.67
2022-09-20T22:16:15.488Z,7.40
2022-09-20T22:18:44.552Z,6.17
2022-09-20T22:21:13.849Z,5.37
2022-09-20T22:23:43.795Z,4.43
2022-09-20T22:26:13.625Z,3.00
2022-09-20T22:28:42.317Z,2.63
2022-09-20T22:31:11.421Z,3.13
2022-09-20T22:33:42.576Z,2.83
2022-09-20T22:36:11.025Z,2.90
2022-09-20T22:38:39.382Z,2.93
2022-09-20T22:41:09.207Z,2.40
2022-09-20T22:43:37.802Z,2.40
2022-09-20T22:46:06.809Z,2.30
2022-09-20T22:48:35.851Z,2.73
2022-09-20T22:51:04.751Z,2.17
2022-09-20T22:53:33.193Z,2.80
2022-09-20T22:56:06.284Z,2.60
2022-09-20T22:58:36.774Z,2.50
2022-09-20T23:01:06.323Z,2.90
2022-09-20T23:03:34.794Z,3.33
2022-09-20T23:06:04.093Z,2.77
2022-09-20T23:08:34.280Z,2.40
2022-09-20T23:11:03.401Z,2.80
2022-09-20T23:13:32.087Z,2.63
2022-09-20T23:16:01.812Z,2.60
2022-09-20T23:18:30.130Z,2.83
2022-09-20T23:21:01.889Z,3.03
2022-09-20T23:23:30.212Z,2.83
2022-09-20T23:26:06.871Z,2.70
2022-09-20T23:28:35.351Z,2.77
2022-09-20T23:31:05.563Z,7.90
2022-09-20T23:33:33.994Z,24.50
2022-09-20T23:36:03.554Z,6.07
2022-09-20T23:38:31.878Z,10.13
2022-09-20T23:41:03.969Z,4.53
2022-09-20T23:43:32.415Z,7.10
2022-09-20T23:46:00.831Z,5.43
2022-09-20T23:48:30.798Z,5.07
2022-09-20T23:50:59.172Z,4.07
2022-09-20T23:53:27.505Z,3.40
2022-09-20T23:55:55.877Z,3.03
2022-09-20T23:58:24.249Z,2.87
